Historyczne dane pomiarowe

Dodano dane terminowe – wersja testowa.

Dane z okresu 1951-2019

Wersja bazy: 1.34 [2019-03-16, lista zmian], aktualizacja planowana na 2019-04-15

Dane meteo z obszaru Polski uzyskane na podstawie danych udostępnionych przez Instytut Meteorologii i Gospodarki Wodnej – Państwowy Instytut Badawczy.

 

Wybierz Datę:    

       

TemperaturaWilgotnośćWiatrCiśnienieOpadyŚniegCzas trwania zjawisk
 Stacja t tx tn tng RH VA  wxwx mslp ppp RRR   cm mm wxwxwxwxwxwxwx
2020-02-29 3.7 8.1 -1.6 -2.8 62.4 4.8- 3.3--1012.1 975.9 0.7 0.0 0.0x- 6.8-------
2020-02-28 0.7 4.0 -2.6 -3.3 90.3 5.8- 2.1--1009.7 973.2 1.4 1.4 0.0x- 0.9-------
2020-02-27 2.1 5.9 -0.6 -2.4 77.8 5.5- 2.5--1004.0 967.9 0.2 0.2 0.0x- 3.0-------
2020-02-26 5.6 9.3 3.2 2.0 73.4 6.6- 1.8-- 996.7 961.3 0.0 0.0 0.0x- 0.1-------
2020-02-25 7.0 10.7 0.6 -1.4 71.5 7.2- 1.9--1004.2 968.7 0.1 0.1 0.0x- 0.0-------
2020-02-24 3.9 11.1 1.4 -1.4 74.0 5.9- 4.8--1014.9 978.6 0.2 0.0 0.2x- 0.8-------
2020-02-23 8.5 10.7 5.8 5.4 69.5 7.6- 3.8--1012.6 977.0 6.4 0.2 6.2x- 0.1-------
2020-02-22 4.6 8.9 -2.3 -3.9 64.5 5.1- 2.6--1025.5 989.0 0.0 0.0 0.0x- 6.7-------
2020-02-21 1.2 3.7 -4.1 -5.1 86.1 5.8- 2.9--1021.5 984.7 5.0 5.0 0.0x- 0.2-------
2020-02-20 2.6 7.0 1.5 0.0 80.4 5.9- 2.1--1022.5 985.8 0.3 0.3 0.0x- 1.3-------
2020-02-19 4.8 9.7 -0.7 -2.4 66.3 5.5- 2.8--1019.2 982.9 0.2 0.0 0.2x- 5.5-------
2020-02-18 7.0 11.3 4.4 1.9 70.6 7.0- 2.3--1021.4 985.3 0.0 0.0 0.0x- 3.8-------
2020-02-17 9.3 13.5 7.2 4.0 53.6 6.3- 3.3--1018.7 983.0 4.0 0.0 4.0x- 5.0-------
2020-02-16 5.6 11.0 -1.5 -3.1 63.4 5.5- 3.3--1024.4 988.0 0.0 0.0 0.0x- 6.0-------
2020-02-15 4.0 9.0 2.3 -1.3 72.4 5.8- 1.1--1028.1 991.3 0.0 0.0 0.0x- 5.4-------
2020-02-14 4.9 6.2 3.3 1.0 70.9 6.1- 2.6--1015.2 979.1 0.0 0.0 0.0x- 0.0-------
2020-02-13 3.7 6.5 0.8 -1.4 56.4 4.4- 3.6--1017.6 981.2 0.0 0.0 0.0x- 8.6-------
2020-02-12 2.4 5.7 0.7 -1.8 68.0 4.9- 3.8--1011.6 975.3 0.0 0.0 0.0x- 4.5-------
2020-02-11 3.4 7.3 0.9 -0.8 71.9 5.5- 4.1--1001.3 965.5 1.2 1.2 0.0x- 4.0-------
2020-02-10 7.0 10.3 2.0 -0.3 57.6 5.8- 5.9--1002.9 967.5 2.3 2.3 0.0x- 2.8-------
2020-02-09 0.5 7.1 -5.8 -6.2 71.4 4.4- 2.5--1025.4 988.2 0.1 0.0 0.1x- 9.2-------
2020-02-08 -2.2 5.0 -7.8 -7.7 77.0 4.0- 1.4--1031.2 993.5 0.0 0.0 0.0x- 8.1-------
2020-02-07 0.4 2.5 -2.2 -3.6 85.1 5.4- 2.1--1027.9 990.7 0.8 0.8 0.0x- 3.3-------
2020-02-06 0.1 1.5 -3.6 -5.5 83.9 5.2- 3.1--1026.0 988.8 1.6 0.0 1.6x- 0.0-------
2020-02-05 0.5 3.1 -1.4 -2.7 80.1 5.2- 3.1--1017.6 980.8 1.0 1.0 0.0x- 2.8-------
2020-02-04 3.0 5.6 0.5 -0.1 91.9 7.0- 2.0--1001.4 965.5 23.8 20.3 3.5x- 0.0-------
2020-02-03 5.7 8.2 4.8 3.2 90.5 8.3- 2.6--1007.8 971.9 5.7 4.3 1.4x- 0.0-------
2020-02-02 7.4 9.9 3.7 0.0 73.8 7.6- 2.5--1007.8 972.2 4.4 1.0 3.4x- 2.6-------
2020-02-01 8.7 13.9 4.1 0.7 73.1 8.2- 2.3--1008.8 973.4 1.6 0.0 1.6x- 5.3-------
2020-01-31 6.8 11.0 2.7 0.3 74.5 7.4- 2.6--1006.5 970.9 1.0 1.0 0.0x- 0.0-------
2020-01-30 3.8 5.8 0.4 -1.3 69.3 5.5- 3.4--1012.5 976.3 0.4 0.0 0.4x- 4.2-------
2020-01-29 2.7 5.4 0.6 -1.6 69.0 5.1- 2.9--1005.0 969.0 0.0 0.0 0.0x- 2.9-------
2020-01-28 0.5 5.1 -4.2 -5.8 84.5 5.3- 1.6--1006.3 969.9 0.2 0.1 0.1x- 0.9-------
2020-01-27 -0.7 7.6 -5.2 -6.7 82.4 4.7- 0.6--1017.8 980.8 0.0 0.0 0.0x- 6.7-------
2020-01-26 -2.9 3.0 -7.2 -8.2 82.3 4.0- 0.9--1022.8 985.3 0.0 0.0 0.0x- 7.3-------
2020-01-25 -2.8--- 84.3------- 0.0 0.0 0.0x---------
2020-01-24 -1.9 4.4 -6.3 -7.1 81.5 4.3- 1.4--1026.4 989.0 0.0 0.0 0.0x- 8.3-------
2020-01-23 1.0 4.4 -1.4 -3.8 76.8 5.0- 2.6--1033.8 996.4 0.0 0.0 0.0x- 5.6-------
2020-01-22 0.2 4.9 -4.9 -6.0 81.1 5.1- 2.3--1030.4 993.1 0.0 0.0 0.0x- 3.1-------
2020-01-21 -0.3 6.1 -5.3 -6.2 84.9 5.0- 1.4--1041.81004.1 0.0 0.0 0.0x- 7.9-------
2020-01-20 1.5 2.1 0.7 0.1 91.0 6.2- 1.9--1044.71007.0 0.0 0.0 0.0x- 0.0-------
2020-01-19 0.4 1.8 -1.8 -3.2 97.3 6.2- 0.5--1031.1 993.8 0.5 0.0 0.5x- 0.0-------
2020-01-18 2.0 7.2 -2.3 -4.2 79.0 5.5- 1.4--1025.2 988.3 0.0 0.0 0.0x- 6.1-------
2020-01-17 1.4 8.2 -4.6 -6.0 81.3 5.4- 1.9--1028.9 991.8 0.0 0.0 0.0x- 2.4-------
2020-01-16 -0.5 2.8 -3.9 -5.4 88.6 5.2- 0.6--1031.9 994.4 0.0 0.0 0.0x- 1.8-------
2020-01-15 -0.3 3.6 -3.7 -5.2 79.9 4.8- 2.1--1026.5 989.2 0.0 0.0 0.0x- 7.8-------
2020-01-14 -1.0 3.3 -4.5 -5.6 85.8 4.9- 1.8--1024.4 987.1 0.0 0.0 0.0x- 7.0-------
2020-01-13 0.5 5.0 -1.1 -2.9 80.9 5.1- 1.1--1025.7 988.6 0.0 0.0 0.0x- 1.8-------
2020-01-12 2.1 7.3 -2.3 -4.3 81.5 5.7- 1.4--1028.4 991.4 0.0 0.0 0.0x- 7.8-------
2020-01-11 3.2 6.0 -0.3 -2.1 86.3 6.6- 2.9--1028.2 991.4 0.0 0.0 0.0x- 0.0-------
2020-01-10 0.6 2.9 -1.2 -2.8 82.6 5.3- 1.6--1021.3 984.3 0.1 0.0 0.1x- 0.2-------
2020-01-09 0.7 2.3 -0.7 -2.7 90.3 5.8- 1.3--1025.6 988.5 1.6 1.6 0.0x- 0.0-------
2020-01-08 -0.4 4.9 -5.1 -6.3 76.4 4.5- 1.4--1030.4 993.0 1.1 0.0 1.1x- 6.2-------
2020-01-07 -4.1 1.5 -9.0-12.9 81.1 3.6- 1.0--1029.1 991.2 0.0 0.0 0.0x- 7.6-------
2020-01-06 -2.2 1.7 -4.5-10.1 80.9 4.2- 0.8--1032.9 995.2 0.0 0.0 0.0x- 1.2-------
2020-01-05 0.7 3.4 -0.2 -2.2 76.5 4.9- 3.6--1027.5 990.4 0.1 0.1 0.0x- 0.2-------
2020-01-04 2.6 5.6 -4.6 -5.9 79.9 5.9- 3.4--1018.7 982.1 2.8 0.3 2.5x- 0.0-------
2020-01-03 -3.6 1.1 -7.6 -8.8 83.9 3.9- 1.1--1026.0 988.3 0.1 0.0 0.1x- 7.4-------
2020-01-02 -2.4 2.7 -6.9 -7.8 83.1 4.2- 0.9--1031.8 994.1 0.0 0.0 0.0x- 5.3-------
2020-01-01 1.9 5.0 -1.5 -3.2 75.8 5.3- 3.1--1032.4 995.3 0.0 0.0 0.0x- 2.2-------
70.4 ms

 

Źródłem pochodzenia danych jest Instytut Meteorologii i Gospodarki Wodnej – Państwowy Instytut Badawczy. Dane Instytutu Meteorologii i Gospodarki Wodnej – Państwowego Instytutu Badawczego zostały przetworzone.

Dane źródłowe można odnaleźć na stronie https://dane.imgw.pl